createdAt,value
2024-02-20T00:02:20.840Z,8.60
2024-02-20T00:05:09.805Z,8.60
2024-02-20T00:08:03.335Z,8.60
2024-02-20T00:10:51.739Z,8.60
2024-02-20T00:13:39.336Z,8.60
2024-02-20T00:16:27.290Z,8.60
2024-02-20T00:19:14.941Z,8.60
2024-02-20T00:22:02.473Z,8.50
2024-02-20T00:24:49.753Z,8.60
2024-02-20T00:27:38.103Z,8.50
2024-02-20T00:30:25.735Z,8.50
2024-02-20T00:33:14.111Z,8.40
2024-02-20T00:36:02.307Z,8.40
2024-02-20T00:38:49.521Z,8.30
2024-02-20T00:41:36.969Z,8.20
2024-02-20T00:44:24.271Z,8.20
2024-02-20T00:47:12.014Z,8.10
2024-02-20T00:49:59.289Z,8.10
2024-02-20T00:52:46.608Z,8.00
2024-02-20T00:55:33.855Z,8.00
2024-02-20T00:58:22.197Z,8.00
2024-02-20T01:01:11.607Z,7.90
2024-02-20T01:03:59.130Z,7.90
2024-02-20T01:06:46.356Z,7.90
2024-02-20T01:09:33.843Z,7.80
2024-02-20T01:12:21.444Z,7.90
2024-02-20T01:15:09.491Z,8.00
2024-02-20T01:17:56.790Z,8.00
2024-02-20T01:20:44.142Z,8.00
2024-02-20T01:23:31.313Z,8.00
2024-02-20T01:26:18.574Z,8.10
2024-02-20T01:29:05.875Z,8.10
2024-02-20T01:31:54.465Z,8.20
2024-02-20T01:34:41.854Z,8.20
2024-02-20T01:37:31.017Z,8.10
2024-02-20T01:40:18.391Z,8.20
2024-02-20T01:43:06.599Z,8.10
2024-02-20T01:45:53.892Z,8.10
2024-02-20T01:48:41.319Z,8.20
2024-02-20T01:51:29.991Z,8.20
2024-02-20T01:54:17.555Z,8.20
2024-02-20T01:57:05.078Z,8.10
2024-02-20T01:59:53.052Z,8.10
2024-02-20T02:02:40.489Z,8.20
2024-02-20T02:05:28.096Z,8.20
2024-02-20T02:08:17.444Z,8.30
2024-02-20T02:11:04.894Z,8.30
2024-02-20T02:13:52.227Z,8.40
2024-02-20T02:16:40.267Z,8.40
2024-02-20T02:19:27.703Z,8.40
2024-02-20T02:22:15.030Z,8.40
2024-02-20T02:25:04.481Z,8.50
2024-02-20T02:27:51.880Z,8.50
2024-02-20T02:30:39.286Z,8.50
2024-02-20T02:33:26.747Z,8.60
2024-02-20T02:36:14.664Z,8.60
2024-02-20T02:39:02.024Z,8.60
2024-02-20T02:41:49.783Z,8.50
2024-02-20T02:44:37.341Z,8.40
2024-02-20T02:47:24.677Z,8.40
2024-02-20T02:50:12.279Z,8.30
2024-02-20T02:53:01.060Z,8.20
2024-02-20T02:55:48.869Z,8.10
2024-02-20T02:58:36.147Z,8.10
2024-02-20T03:01:24.153Z,8.00
2024-02-20T03:04:11.420Z,7.90
2024-02-20T03:06:59.736Z,7.80
2024-02-20T03:09:47.078Z,7.70
2024-02-20T03:12:36.175Z,7.60
2024-02-20T03:15:24.149Z,7.50
2024-02-20T03:18:12.035Z,7.50
2024-02-20T03:21:01.479Z,7.40
2024-02-20T03:23:48.683Z,7.40
2024-02-20T03:26:36.174Z,7.30
2024-02-20T03:29:25.376Z,7.30
2024-02-20T03:32:12.727Z,7.20
2024-02-20T03:35:00.536Z,7.20
2024-02-20T03:37:49.335Z,7.10
2024-02-20T03:40:36.647Z,7.10
2024-02-20T03:43:24.061Z,7.10
2024-02-20T03:46:13.367Z,7.00
2024-02-20T03:49:01.059Z,7.00
2024-02-20T03:51:48.356Z,7.00
2024-02-20T03:54:35.682Z,6.90
2024-02-20T03:57:22.865Z,6.90
2024-02-20T04:00:13.628Z,6.90
2024-02-20T04:03:01.031Z,6.90
2024-02-20T04:05:49.283Z,7.00
2024-02-20T04:08:36.793Z,7.00
2024-02-20T04:11:24.080Z,7.00
2024-02-20T04:14:11.327Z,7.00
2024-02-20T04:16:58.545Z,7.10
2024-02-20T04:19:45.881Z,7.10
2024-02-20T04:22:33.294Z,7.10
2024-02-20T04:25:20.834Z,7.20
2024-02-20T04:28:08.228Z,7.30
2024-02-20T04:30:55.468Z,7.30
2024-02-20T04:33:43.075Z,7.30
2024-02-20T04:36:30.424Z,7.30
2024-02-20T04:39:17.655Z,7.30
2024-02-20T04:42:05.478Z,7.40
2024-02-20T04:44:52.922Z,7.50
2024-02-20T04:47:40.488Z,7.50
2024-02-20T04:50:27.726Z,7.60
2024-02-20T04:53:14.977Z,7.60
2024-02-20T04:56:02.238Z,7.60
2024-02-20T04:58:49.537Z,7.70
2024-02-20T05:01:36.899Z,7.70
2024-02-20T05:04:25.050Z,7.70
2024-02-20T05:07:12.453Z,7.80
2024-02-20T05:09:59.977Z,7.90
2024-02-20T05:12:47.277Z,8.00
2024-02-20T05:15:34.511Z,8.00
2024-02-20T05:18:21.765Z,8.10
2024-02-20T05:21:09.909Z,8.10
2024-02-20T05:23:57.182Z,8.10
2024-02-20T05:26:44.525Z,8.10
2024-02-20T05:29:32.041Z,8.10
2024-02-20T05:32:21.412Z,8.10
2024-02-20T05:35:09.488Z,8.10
2024-02-20T05:37:56.808Z,8.20
2024-02-20T05:40:44.233Z,8.20
2024-02-20T05:43:31.806Z,8.20
2024-02-20T05:46:19.165Z,8.30
2024-02-20T05:49:06.881Z,8.30
2024-02-20T05:51:55.712Z,8.30
2024-02-20T05:54:42.953Z,8.40
2024-02-20T05:57:30.939Z,8.50
2024-02-20T06:00:18.360Z,8.50
2024-02-20T06:03:07.039Z,8.50
2024-02-20T06:05:54.363Z,8.60
2024-02-20T06:08:43.252Z,8.60
2024-02-20T06:11:30.587Z,8.70
2024-02-20T06:14:18.043Z,8.70
2024-02-20T06:17:05.761Z,8.80
2024-02-20T06:19:53.124Z,8.90
2024-02-20T06:22:40.596Z,8.90
2024-02-20T06:25:29.027Z,9.00
2024-02-20T06:28:18.406Z,9.10
2024-02-20T06:31:08.396Z,9.10
2024-02-20T06:33:56.194Z,9.20
2024-02-20T06:36:43.478Z,9.20
2024-02-20T06:39:30.796Z,9.30
2024-02-20T06:42:18.814Z,9.30
2024-02-20T06:45:07.493Z,9.40
2024-02-20T06:47:55.992Z,9.50
2024-02-20T06:50:43.405Z,9.60
2024-02-20T06:53:30.619Z,9.70
2024-02-20T06:56:17.858Z,9.70
2024-02-20T06:59:05.146Z,9.80
2024-02-20T07:01:53.234Z,9.80
2024-02-20T07:04:41.813Z,9.90
2024-02-20T07:07:29.313Z,9.90
2024-02-20T07:12:14.660Z,10.10
2024-02-20T07:15:09.130Z,10.50
2024-02-20T07:17:57.054Z,11.60
2024-02-20T07:20:44.457Z,12.70
2024-02-20T07:23:32.183Z,13.60
2024-02-20T07:26:19.560Z,14.40
2024-02-20T07:29:06.978Z,14.80
2024-02-20T07:31:56.425Z,15.20
2024-02-20T07:34:46.870Z,15.50
2024-02-20T07:37:38.216Z,15.80
2024-02-20T07:40:26.699Z,16.00
2024-02-20T07:43:14.134Z,16.10
2024-02-20T07:46:01.723Z,16.30
2024-02-20T07:48:49.297Z,16.40
2024-02-20T07:51:36.806Z,16.60
2024-02-20T07:54:24.444Z,16.70
2024-02-20T07:57:12.393Z,16.80
2024-02-20T08:00:00.209Z,16.80
2024-02-20T08:02:49.800Z,16.90
2024-02-20T08:05:37.754Z,17.00
2024-02-20T08:08:25.242Z,17.00
2024-02-20T08:11:13.812Z,17.00
2024-02-20T08:14:01.345Z,17.10
2024-02-20T08:16:51.812Z,17.10
2024-02-20T08:19:40.516Z,17.10
2024-02-20T08:22:27.910Z,17.20
2024-02-20T08:25:15.724Z,17.30
2024-02-20T08:28:03.125Z,17.50
2024-02-20T08:30:50.623Z,17.50
2024-02-20T08:33:38.118Z,17.70
2024-02-20T08:36:25.544Z,17.80
2024-02-20T08:39:12.886Z,17.90
2024-02-20T08:42:00.291Z,17.90
2024-02-20T08:44:47.809Z,17.90
2024-02-20T08:47:36.103Z,17.80
2024-02-20T08:50:23.720Z,17.90
2024-02-20T08:53:14.267Z,17.90
2024-02-20T08:56:01.673Z,17.90
2024-02-20T08:58:53.006Z,18.00
2024-02-20T09:01:43.474Z,18.10
2024-02-20T09:04:32.967Z,18.10
2024-02-20T09:07:20.572Z,18.10
2024-02-20T09:10:09.261Z,18.20
2024-02-20T09:12:56.873Z,18.20
2024-02-20T09:15:45.876Z,18.40
2024-02-20T09:18:37.019Z,18.50
2024-02-20T09:21:24.435Z,18.50
2024-02-20T09:24:12.650Z,18.60
2024-02-20T09:27:00.017Z,18.80
2024-02-20T09:29:47.611Z,19.00
2024-02-20T09:32:35.097Z,19.20
2024-02-20T09:35:22.520Z,19.40
2024-02-20T09:38:10.154Z,19.60
2024-02-20T09:41:01.049Z,19.70
2024-02-20T09:43:49.765Z,19.70
2024-02-20T09:46:53.525Z,19.70
2024-02-20T09:49:42.933Z,19.80
2024-02-20T09:52:32.856Z,19.80
2024-02-20T09:55:22.470Z,19.70
2024-02-20T09:58:10.006Z,19.60
2024-02-20T10:01:04.429Z,19.40
2024-02-20T10:03:57.381Z,19.30
2024-02-20T10:06:44.849Z,19.20
2024-02-20T10:09:33.030Z,19.10
2024-02-20T10:12:25.165Z,19.00
2024-02-20T10:15:16.575Z,19.00
2024-02-20T10:18:05.943Z,18.90
2024-02-20T10:21:04.000Z,18.90
2024-02-20T10:24:09.502Z,18.90
2024-02-20T10:27:03.438Z,18.80
2024-02-20T10:29:51.324Z,18.60
2024-02-20T10:32:39.349Z,18.40
2024-02-20T10:35:27.753Z,18.30
2024-02-20T10:38:20.524Z,18.20
2024-02-20T10:41:08.074Z,18.20
2024-02-20T10:43:56.235Z,18.20
2024-02-20T10:46:44.062Z,18.10
2024-02-20T10:49:33.582Z,18.10
2024-02-20T10:52:22.195Z,18.10
2024-02-20T10:55:23.234Z,18.20
2024-02-20T10:58:19.441Z,18.30
2024-02-20T11:01:14.584Z,18.40
2024-02-20T11:04:04.570Z,18.40
2024-02-20T11:06:56.490Z,18.50
2024-02-20T11:10:24.461Z,18.60
2024-02-20T11:13:30.644Z,18.70
2024-02-20T11:16:24.768Z,18.50
2024-02-20T11:19:12.514Z,18.30
2024-02-20T11:22:09.566Z,18.30
2024-02-20T11:25:15.842Z,18.40
2024-02-20T11:28:16.978Z,18.60
2024-02-20T11:31:07.202Z,18.70
2024-02-20T11:33:57.017Z,18.80
2024-02-20T11:36:46.066Z,19.10
2024-02-20T11:39:33.522Z,19.30
2024-02-20T11:42:21.151Z,19.30
2024-02-20T11:45:22.402Z,19.30
2024-02-20T11:48:15.750Z,19.30
2024-02-20T11:51:03.815Z,19.40
2024-02-20T11:53:55.539Z,19.30
2024-02-20T11:56:45.297Z,19.30
2024-02-20T11:59:32.901Z,19.20
2024-02-20T12:02:23.117Z,19.20
2024-02-20T12:05:10.739Z,19.30
2024-02-20T12:07:58.564Z,19.40
2024-02-20T12:10:48.255Z,19.40
2024-02-20T12:13:36.056Z,19.50
2024-02-20T12:16:28.722Z,19.50
2024-02-20T12:19:28.953Z,19.50
2024-02-20T12:22:19.969Z,19.50
2024-02-20T12:25:13.612Z,19.50
2024-02-20T12:28:01.696Z,19.60
2024-02-20T12:30:50.729Z,19.70
2024-02-20T12:33:38.603Z,19.90
2024-02-20T12:36:29.404Z,19.90
2024-02-20T12:39:17.639Z,19.80
2024-02-20T12:42:06.849Z,19.90
2024-02-20T12:44:54.904Z,19.90
2024-02-20T12:47:42.295Z,20.00
2024-02-20T12:50:29.741Z,20.00
2024-02-20T12:53:17.184Z,20.00
2024-02-20T12:56:05.246Z,20.10
2024-02-20T12:58:52.717Z,20.10
2024-02-20T13:01:40.201Z,20.40
2024-02-20T13:04:28.887Z,20.60
2024-02-20T13:07:17.667Z,20.60
2024-02-20T13:10:05.924Z,20.50
2024-02-20T13:12:55.845Z,20.10
2024-02-20T13:15:43.453Z,19.90
2024-02-20T13:18:31.142Z,19.70
2024-02-20T13:21:18.673Z,19.50
2024-02-20T13:24:08.537Z,19.50
2024-02-20T13:26:55.906Z,19.50
2024-02-20T13:29:43.579Z,19.40
2024-02-20T13:32:31.169Z,19.40
2024-02-20T13:35:20.340Z,19.50
2024-02-20T13:38:09.106Z,19.60
2024-02-20T13:40:57.952Z,19.60
2024-02-20T13:43:45.626Z,19.30
2024-02-20T13:46:33.719Z,19.10
2024-02-20T13:49:26.618Z,19.00
2024-02-20T13:52:14.050Z,19.00
2024-02-20T13:55:01.375Z,19.10
2024-02-20T13:57:48.717Z,19.20
2024-02-20T14:00:36.380Z,19.20
2024-02-20T14:03:26.027Z,19.30
2024-02-20T14:06:13.551Z,19.50
2024-02-20T14:09:02.679Z,19.60
2024-02-20T14:11:50.169Z,19.60
2024-02-20T14:14:37.588Z,19.70
2024-02-20T14:17:24.995Z,19.70
2024-02-20T14:20:12.619Z,19.70
2024-02-20T14:23:00.847Z,20.00
2024-02-20T14:25:48.805Z,20.20
2024-02-20T14:28:40.311Z,20.20
2024-02-20T14:31:28.486Z,20.00
2024-02-20T14:34:16.137Z,19.90
2024-02-20T14:37:08.106Z,19.70
2024-02-20T14:39:56.770Z,19.50
2024-02-20T14:42:44.196Z,19.30
2024-02-20T14:45:31.565Z,19.20
2024-02-20T14:48:19.276Z,19.00
2024-02-20T14:51:06.730Z,18.90
2024-02-20T14:53:57.088Z,18.70
2024-02-20T14:56:45.153Z,18.50
2024-02-20T14:59:32.498Z,18.30
2024-02-20T15:02:20.482Z,18.10
2024-02-20T15:05:11.023Z,18.00
2024-02-20T15:07:58.606Z,17.80
2024-02-20T15:10:46.130Z,17.60
2024-02-20T15:13:33.576Z,17.60
2024-02-20T15:16:23.996Z,17.60
2024-02-20T15:19:11.462Z,17.60
2024-02-20T15:21:58.910Z,17.50
2024-02-20T15:24:46.872Z,17.50
2024-02-20T15:27:34.278Z,17.50
2024-02-20T15:30:21.870Z,17.40
2024-02-20T15:33:09.445Z,17.40
2024-02-20T15:35:57.007Z,17.40
2024-02-20T15:38:44.462Z,17.30
2024-02-20T15:41:32.009Z,17.20
2024-02-20T15:44:19.398Z,17.10
2024-02-20T15:47:08.574Z,17.10
2024-02-20T15:49:56.098Z,16.90
2024-02-20T15:52:43.581Z,16.80
2024-02-20T15:55:32.570Z,16.80
2024-02-20T15:58:24.086Z,16.80
2024-02-20T16:01:12.057Z,16.80
2024-02-20T16:03:59.452Z,16.90
2024-02-20T16:06:46.885Z,16.80
2024-02-20T16:09:34.366Z,16.80
2024-02-20T16:12:21.801Z,16.70
2024-02-20T16:15:09.976Z,16.70
2024-02-20T16:17:57.522Z,16.70
2024-02-20T16:20:45.509Z,16.60
2024-02-20T16:23:32.949Z,16.60
2024-02-20T16:26:21.920Z,16.50
2024-02-20T16:29:09.366Z,16.30
2024-02-20T16:31:56.824Z,16.20
2024-02-20T16:34:44.388Z,16.10
2024-02-20T16:37:31.922Z,15.90
2024-02-20T16:40:21.020Z,15.90
2024-02-20T16:43:10.495Z,15.80
2024-02-20T16:45:58.160Z,15.90
2024-02-20T16:48:46.588Z,15.90
2024-02-20T16:51:34.289Z,15.90
2024-02-20T16:54:21.938Z,15.90
2024-02-20T16:57:11.714Z,15.90
2024-02-20T16:59:59.080Z,16.00
2024-02-20T17:02:46.505Z,16.00
2024-02-20T17:05:34.015Z,16.10
2024-02-20T17:08:25.485Z,15.90
2024-02-20T17:11:13.057Z,15.80
2024-02-20T17:14:01.187Z,15.70
2024-02-20T17:16:50.594Z,15.50
2024-02-20T17:19:39.135Z,15.40
2024-02-20T17:22:26.800Z,15.20
2024-02-20T17:25:14.730Z,14.40
2024-02-20T17:28:02.152Z,13.60
2024-02-20T17:30:50.179Z,13.00
2024-02-20T17:33:37.939Z,12.50
2024-02-20T17:36:25.203Z,12.10
2024-02-20T17:39:12.914Z,11.80
2024-02-20T17:42:00.204Z,11.50
2024-02-20T17:44:47.424Z,11.20
2024-02-20T17:47:34.877Z,11.00
2024-02-20T17:50:22.188Z,10.90
2024-02-20T17:53:09.529Z,10.80
2024-02-20T17:55:56.942Z,10.60
2024-02-20T17:58:45.350Z,10.60
2024-02-20T18:01:36.402Z,10.50
2024-02-20T18:04:23.843Z,10.40
2024-02-20T18:07:11.326Z,10.30
2024-02-20T18:09:58.670Z,10.20
2024-02-20T18:12:45.916Z,10.20
2024-02-20T18:15:33.329Z,10.10
2024-02-20T18:18:23.432Z,10.10
2024-02-20T18:21:10.771Z,10.10
2024-02-20T18:23:59.208Z,10.10
2024-02-20T18:26:46.625Z,10.10
2024-02-20T18:29:33.825Z,10.10
2024-02-20T18:32:21.180Z,10.10
2024-02-20T18:35:09.070Z,10.00
2024-02-20T18:37:57.072Z,10.00
2024-02-20T18:40:46.020Z,10.00
2024-02-20T18:43:33.399Z,10.00
2024-02-20T18:46:21.887Z,9.90
2024-02-20T18:49:10.894Z,9.90
2024-02-20T18:51:58.320Z,9.90
2024-02-20T18:54:46.232Z,9.90
2024-02-20T18:57:33.679Z,9.90
2024-02-20T19:00:21.361Z,9.90
2024-02-20T19:03:08.770Z,9.90
2024-02-20T19:05:56.097Z,9.80
2024-02-20T19:08:45.222Z,9.80
2024-02-20T19:11:32.743Z,9.90
2024-02-20T19:14:23.068Z,9.90
2024-02-20T19:17:10.409Z,9.90
2024-02-20T19:19:58.482Z,9.90
2024-02-20T19:22:47.381Z,9.80
2024-02-20T19:25:35.077Z,9.80
2024-02-20T19:28:22.351Z,9.70
2024-02-20T19:31:09.925Z,9.80
2024-02-20T19:33:57.418Z,9.80
2024-02-20T19:36:44.714Z,9.80
2024-02-20T19:39:33.009Z,9.80
2024-02-20T19:42:20.214Z,9.80
2024-02-20T19:45:08.298Z,9.90
2024-02-20T19:47:56.018Z,9.80
2024-02-20T19:50:46.321Z,9.90
2024-02-20T19:53:33.648Z,9.90
2024-02-20T19:56:21.148Z,9.80
2024-02-20T19:59:12.812Z,9.80
2024-02-20T20:02:00.237Z,9.80
2024-02-20T20:04:48.174Z,9.90
2024-02-20T20:07:35.761Z,9.80
2024-02-20T20:10:26.520Z,9.80
2024-02-20T20:13:13.869Z,9.80
2024-02-20T20:16:01.128Z,9.80
2024-02-20T20:18:51.190Z,9.80
2024-02-20T20:21:38.517Z,9.80
2024-02-20T20:24:25.935Z,9.80
2024-02-20T20:27:14.356Z,9.70
2024-02-20T20:30:01.781Z,9.70
2024-02-20T20:32:49.107Z,9.70
2024-02-20T20:35:36.898Z,9.60
2024-02-20T20:38:24.168Z,9.50
2024-02-20T20:41:11.479Z,9.40
2024-02-20T20:44:00.999Z,9.20
2024-02-20T20:46:48.607Z,9.10
2024-02-20T20:49:35.958Z,8.90
2024-02-20T20:52:23.804Z,8.90
2024-02-20T20:55:11.036Z,8.90
2024-02-20T20:57:58.414Z,8.90
2024-02-20T21:00:46.263Z,8.90
2024-02-20T21:03:33.766Z,9.00
2024-02-20T21:06:21.118Z,9.00
2024-02-20T21:09:11.404Z,9.00
2024-02-20T21:11:58.816Z,9.00
2024-02-20T21:14:47.309Z,9.00
2024-02-20T21:17:34.549Z,9.10
2024-02-20T21:20:21.803Z,9.10
2024-02-20T21:23:09.024Z,9.10
2024-02-20T21:25:56.415Z,9.10
2024-02-20T21:28:43.863Z,9.10
2024-02-20T21:31:31.303Z,9.10
2024-02-20T21:34:18.869Z,9.10
2024-02-20T21:37:06.779Z,9.10
2024-02-20T21:39:55.705Z,9.10
2024-02-20T21:42:44.783Z,9.10
2024-02-20T21:45:32.024Z,9.10
2024-02-20T21:48:19.426Z,9.10
2024-02-20T21:51:06.698Z,9.10
2024-02-20T21:53:55.925Z,9.10
2024-02-20T21:56:43.156Z,9.10
2024-02-20T21:59:30.741Z,9.10
2024-02-20T22:02:18.191Z,9.10
2024-02-20T22:05:05.764Z,9.10
2024-02-20T22:07:53.637Z,9.00
2024-02-20T22:10:41.055Z,9.10
2024-02-20T22:13:29.098Z,9.00
2024-02-20T22:16:16.529Z,9.00
2024-02-20T22:19:09.312Z,9.00
2024-02-20T22:21:56.804Z,9.00
2024-02-20T22:24:44.044Z,9.00
2024-02-20T22:27:31.418Z,9.00
2024-02-20T22:30:21.421Z,9.00
2024-02-20T22:33:10.281Z,9.00
2024-02-20T22:35:57.603Z,8.90
2024-02-20T22:38:45.339Z,8.90
2024-02-20T22:41:32.553Z,8.80
2024-02-20T22:44:21.120Z,8.80
2024-02-20T22:47:09.302Z,8.70
2024-02-20T22:49:56.715Z,8.70
2024-02-20T22:52:44.479Z,8.80
2024-02-20T22:55:32.821Z,8.80
2024-02-20T22:58:20.093Z,8.70
2024-02-20T23:01:07.392Z,8.80
2024-02-20T23:03:54.639Z,8.80
2024-02-20T23:06:44.995Z,8.80
2024-02-20T23:09:32.338Z,8.80
2024-02-20T23:12:19.596Z,8.80
2024-02-20T23:15:10.319Z,8.80
2024-02-20T23:17:57.641Z,8.80
2024-02-20T23:20:45.050Z,8.80
2024-02-20T23:23:32.288Z,8.80
2024-02-20T23:26:19.687Z,8.80
2024-02-20T23:29:07.053Z,8.80
2024-02-20T23:31:54.348Z,8.80
2024-02-20T23:34:41.693Z,8.80
2024-02-20T23:37:29.005Z,8.80
2024-02-20T23:40:16.596Z,8.80
2024-02-20T23:43:03.999Z,8.80
2024-02-20T23:45:51.332Z,8.80
2024-02-20T23:48:38.983Z,8.80
2024-02-20T23:51:26.374Z,8.80
2024-02-20T23:54:13.552Z,8.80
2024-02-20T23:57:00.936Z,8.70
2024-02-20T23:59:48.320Z,8.60
